Country
Station

 

Weather  for  Lann Bihoue  -  France    France

  
20 °C (68 °F)
    
 
 

Current METAR for Lann Bihoue is :

LFRH 191530Z AUTO 22014KT 9999 FEW010 BKN030 OVC044 20/19 Q1019 TEMPO 22015G25KT

 

This is a report for Lann Bihoue - France.
 
The report was made 10 minutes ago, at 15:30 UTC .
The wind was blowing at a speed of 7.2 meters per second (16.1 miles per hour) from southwest (220°).
 
The temperature was 20 °C (68 °F), with a dew-point at 19 °C (66 °F).
The atmospheric pressure was 1019 hPa (30.09 inHg).
The relative humidity was 94.0%.
 
There were a few clouds at a height of 305 meters (1000 feet) and broken clouds at a height of 914 meters (3000 feet). The sky was overcast from a height of 1341 meter (4400 feet)
 
The overall visibility was greater than 10 kilometers (6.2 miles).
 

 
 
 
 

Country :   A   B   C   D   E   F   G   H   I   J   K   L   M   N   O   P   Q   R   S   T   U   V   W   Y   Z

 

Site Info  |  Disclaimer  |  Credits  |  Privacy
Contact us  |  Add to favorites
© 2013-2018 METARs - All rights reserved